Time;durP1;ratioP1;P1;durP2;ratioP2;P2;SDS_P1;SDS_P2;PMS_P1;PMS_P2;Temp;Humidity;BMP_temperature;BMP_pressure;BME280_temperature;BME280_humidity;BME280_pressure;Samples;Min_cycle;Max_cycle;Signal;HPM_P1;HPM_P2
2021/03/12 00:01:25;;;;;;;12.93;5.75;;;;;;;-1.14;52.13;100594.34;1662328;85;21057;-61
2021/03/12 00:03:53;;;;;;;13.62;4.92;;;;;;;-1.18;52.12;100585.66;1662595;85;21077;-61
2021/03/12 00:06:21;;;;;;;29.65;5.75;;;;;;;-1.19;52.15;100589.31;1662572;86;21350;-62
2021/03/12 00:08:48;;;;;;;13.15;5.70;;;;;;;-1.18;52.11;100580.77;1662309;86;21312;-63
2021/03/12 00:11:15;;;;;;;10.70;4.70;;;;;;;-1.18;52.11;100577.59;1662596;86;21772;-61
2021/03/12 00:13:44;;;;;;;20.40;5.20;;;;;;;-1.17;52.06;100569.89;1662589;86;21217;-61
2021/03/12 00:16:11;;;;;;;11.25;5.40;;;;;;;-1.20;52.05;100579.55;1662339;85;21349;-62
2021/03/12 00:18:44;;;;;;;10.35;4.75;;;;;;;-1.23;52.07;100580.27;1662587;85;21210;-63
2021/03/12 00:21:14;;;;;;;17.35;4.72;;;;;;;-1.25;52.03;100564.74;1646874;86;21351;-61
2021/03/12 00:23:43;;;;;;;10.45;4.30;;;;;;;-1.27;52.00;100564.00;1647071;86;21118;-61
2021/03/12 00:26:10;;;;;;;12.05;4.83;;;;;;;-1.28;51.99;100564.49;1662615;85;21335;-62
2021/03/12 00:28:37;;;;;;;9.55;4.67;;;;;;;-1.26;52.00;100559.00;1662307;86;21343;-62
2021/03/12 00:31:05;;;;;;;13.10;4.45;;;;;;;-1.26;51.97;100566.57;1662608;85;21070;-63
2021/03/12 00:33:33;;;;;;;13.43;4.35;;;;;;;-1.25;51.91;100553.98;1662712;86;21234;-62
2021/03/12 00:36:05;;;;;;;13.83;4.45;;;;;;;-1.25;51.89;100527.11;1664115;85;21137;-62
2021/03/12 00:38:32;;;;;;;10.05;4.83;;;;;;;-1.25;51.92;100537.86;1671528;84;21364;-61
2021/03/12 00:41:04;;;;;;;20.68;4.40;;;;;;;-1.26;51.84;100528.94;1671750;84;21376;-61
2021/03/12 00:43:34;;;;;;;11.78;4.70;;;;;;;-1.26;51.82;100537.49;1671585;85;21058;-63
2021/03/12 00:46:07;;;;;;;21.90;5.15;;;;;;;-1.28;51.79;100533.58;1669033;85;21117;-64
2021/03/12 00:48:35;;;;;;;12.05;4.80;;;;;;;-1.27;51.80;100523.20;1671756;85;21118;-61
2021/03/12 00:51:04;;;;;;;17.35;4.97;;;;;;;-1.28;51.76;100517.45;1671928;85;21138;-61
2021/03/12 00:53:36;;;;;;;22.13;5.37;;;;;;;-1.27;51.75;100518.31;1671354;85;21376;-62
2021/03/12 00:56:05;;;;;;;9.80;4.60;;;;;;;-1.30;51.70;100522.95;1671811;85;21102;-62
2021/03/12 00:58:32;;;;;;;12.88;4.72;;;;;;;-1.33;51.69;100519.61;1663273;85;21692;-62
2021/03/12 01:01:01;;;;;;;18.02;5.42;;;;;;;-1.34;51.77;100505.80;1660148;85;21058;-62
2021/03/12 01:03:31;;;;;;;8.53;3.95;;;;;;;-1.34;51.78;100501.77;1660348;86;21292;-61
2021/03/12 01:06:01;;;;;;;11.97;4.92;;;;;;;-1.32;51.80;100477.83;1659940;85;21188;-62
2021/03/12 01:08:30;;;;;;;328.70;16.30;;;;;;;-1.32;51.67;100477.83;1659577;86;21771;-61
2021/03/12 01:10:57;;;;;;;18.77;5.12;;;;;;;-1.35;51.76;100469.16;1660075;85;21336;-62
2021/03/12 01:13:25;;;;;;;18.82;4.55;;;;;;;-1.38;51.81;100461.33;1660121;86;21319;-65
2021/03/12 01:15:52;;;;;;;9.70;4.55;;;;;;;-1.39;51.75;100453.76;1660216;85;21353;-61
2021/03/12 01:18:22;;;;;;;9.88;4.90;;;;;;;-1.39;51.80;100462.31;1659268;85;21437;-63
2021/03/12 01:20:50;;;;;;;13.30;4.80;;;;;;;-1.36;51.82;100445.95;1635201;86;21105;-61
2021/03/12 01:23:19;;;;;;;13.50;4.90;;;;;;;-1.32;51.74;100454.98;1660183;85;21073;-62
2021/03/12 01:25:47;;;;;;;23.10;5.60;;;;;;;-1.31;51.67;100441.92;1660091;86;21097;-62
2021/03/12 01:28:16;;;;;;;35.43;5.47;;;;;;;-1.32;51.61;100451.45;1660063;85;21046;-61
2021/03/12 01:30:45;;;;;;;10.55;4.45;;;;;;;-1.36;51.60;100441.42;1660120;85;21100;-61
2021/03/12 01:33:23;;;;;;;11.57;4.83;;;;;;;-1.38;51.72;100461.33;1658277;85;21193;-61
2021/03/12 01:35:51;;;;;;;10.45;4.40;;;;;;;-1.41;51.80;100468.29;1633401;86;21822;-62
2021/03/12 01:38:19;;;;;;;13.95;4.78;;;;;;;-1.40;51.77;100468.66;1655150;85;21339;-62
2021/03/12 01:40:48;;;;;;;11.03;4.28;;;;;;;-1.40;51.72;100465.97;1655142;86;21335;-62
2021/03/12 01:43:18;;;;;;;7.97;4.65;;;;;;;-1.41;51.77;100469.63;1655127;85;21073;-63
2021/03/12 01:45:49;;;;;;;13.45;4.12;;;;;;;-1.42;51.83;100485.39;1655113;86;21188;-62
2021/03/12 01:48:21;;;;;;;9.70;3.62;;;;;;;-1.39;51.84;100475.26;1655043;86;21883;-62
2021/03/12 01:50:56;;;;;;;9.03;4.70;;;;;;;-1.39;51.78;100462.31;1655221;86;21269;-62
2021/03/12 01:53:24;;;;;;;9.03;4.00;;;;;;;-1.40;51.82;100449.84;1630521;86;21730;-62
2021/03/12 01:55:52;;;;;;;10.68;4.20;;;;;;;-1.41;51.90;100447.65;1655385;86;21199;-62
2021/03/12 01:58:21;;;;;;;12.85;4.20;;;;;;;-1.41;51.86;100423.95;1630246;86;21081;-62
2021/03/12 02:00:51;;;;;;;10.48;3.70;;;;;;;-1.45;51.96;100426.52;1654763;85;21785;-62
2021/03/12 02:03:24;;;;;;;12.07;4.80;;;;;;;-1.47;52.04;100413.20;1653560;85;21112;-62
2021/03/12 02:05:53;;;;;;;12.33;4.35;;;;;;;-1.48;52.12;100406.60;1654570;86;21240;-63
2021/03/12 02:08:22;;;;;;;12.15;4.87;;;;;;;-1.47;52.13;100416.37;1655283;85;21332;-64
2021/03/12 02:10:51;;;;;;;32.38;4.83;;;;;;;-1.44;52.07;100422.85;1654110;86;21904;-62
2021/03/12 02:13:50;;;;;;;15.43;5.10;;;;;;;-1.45;52.05;100413.94;1655163;86;21414;-62
2021/03/12 02:16:29;;;;;;;14.13;3.80;;;;;;;-1.46;52.00;100411.37;1655089;86;21344;-61
2021/03/12 02:19:28;;;;;;;11.05;4.78;;;;;;;-1.48;52.12;100403.43;1655102;86;21419;-61
2021/03/12 02:21:58;;;;;;;12.15;4.03;;;;;;;-1.50;52.13;100403.19;1655264;86;21384;-61
2021/03/12 02:24:48;;;;;;;11.10;4.22;;;;;;;-1.55;52.17;100405.38;1630058;86;21324;-62
2021/03/12 02:27:18;;;;;;;11.20;4.78;;;;;;;-1.55;52.26;100398.66;1654293;85;21864;-61
2021/03/12 02:29:51;;;;;;;10.25;4.05;;;;;;;-1.57;52.29;100389.86;1630946;86;21486;-62
2021/03/12 02:32:33;;;;;;;29.27;5.10;;;;;;;-1.58;52.33;100389.01;1655181;85;21196;-62
2021/03/12 02:35:06;;;;;;;17.92;4.53;;;;;;;-1.63;52.39;100367.88;1630224;86;21859;-61
2021/03/12 02:37:33;;;;;;;10.98;4.45;;;;;;;-1.66;52.53;100373.50;1656845;86;21089;-61
2021/03/12 02:40:01;;;;;;;12.13;5.28;;;;;;;-1.69;52.63;100371.05;1677088;84;21338;-61
2021/03/12 02:42:30;;;;;;;10.68;4.17;;;;;;;-1.68;52.69;100364.70;1654468;83;21355;-62
2021/03/12 02:44:59;;;;;;;9.25;4.00;;;;;;;-1.65;52.69;100377.89;1703235;83;21313;-62
2021/03/12 02:47:30;;;;;;;13.28;4.60;;;;;;;-1.65;52.64;100375.69;1677216;84;21124;-63
2021/03/12 02:49:59;;;;;;;11.38;4.47;;;;;;;-1.68;52.67;100367.39;1702497;84;21080;-61
2021/03/12 02:52:27;;;;;;;12.15;4.72;;;;;;;-1.71;52.86;100365.44;1703237;83;21864;-61
2021/03/12 02:54:56;;;;;;;17.17;4.33;;;;;;;-1.69;52.71;100377.77;1677096;84;21309;-61
2021/03/12 02:57:25;;;;;;;28.87;5.53;;;;;;;-1.72;52.70;100363.72;1677181;83;21069;-61
2021/03/12 02:59:55;;;;;;;14.03;4.40;;;;;;;-1.75;52.75;100354.56;1703190;84;21873;-62
2021/03/12 03:02:30;;;;;;;27.55;4.65;;;;;;;-1.77;52.76;100360.05;1689431;83;21870;-61
2021/03/12 03:04:59;;;;;;;15.80;4.67;;;;;;;-1.76;52.79;100352.85;1701801;84;21057;-63
2021/03/12 03:07:28;;;;;;;9.10;3.90;;;;;;;-1.76;52.85;100352.36;1702856;84;21771;-63
2021/03/12 03:09:56;;;;;;;12.37;4.45;;;;;;;-1.74;52.79;100349.55;1703242;84;21168;-62
2021/03/12 03:12:25;;;;;;;11.10;4.85;;;;;;;-1.75;52.69;100350.05;1703213;84;21183;-62
2021/03/12 03:14:57;;;;;;;10.23;4.22;;;;;;;-1.77;52.68;100344.43;1703169;84;21951;-62
2021/03/12 03:17:28;;;;;;;11.35;4.85;;;;;;;-1.76;52.72;100337.59;1703283;83;21112;-63
2021/03/12 03:19:56;;;;;;;10.58;4.62;;;;;;;-1.76;52.59;100325.51;1677263;84;21377;-61
2021/03/12 03:22:23;;;;;;;10.68;4.97;;;;;;;-1.76;52.51;100314.77;1703386;84;21299;-62
2021/03/12 03:24:51;;;;;;;14.47;5.08;;;;;;;-1.78;52.45;100348.94;1677027;84;21060;-62
2021/03/12 03:27:19;;;;;;;14.25;3.90;;;;;;;-1.80;52.52;100324.53;1703284;84;21334;-63
2021/03/12 03:29:48;;;;;;;19.37;4.72;;;;;;;-1.80;52.45;100331.24;1703475;84;21384;-62
2021/03/12 03:32:18;;;;;;;14.47;4.55;;;;;;;-1.81;52.39;100330.39;1703339;84;21045;-63
2021/03/12 03:34:47;;;;;;;12.82;5.08;;;;;;;-1.84;52.36;100334.66;1703315;84;21199;-63
2021/03/12 03:37:15;;;;;;;18.98;5.08;;;;;;;-1.85;52.37;100325.37;1703175;83;21119;-61
2021/03/12 03:39:43;;;;;;;12.73;5.20;;;;;;;-1.83;52.34;100302.80;1703219;84;21060;-63
2021/03/12 03:42:12;;;;;;;12.47;5.33;;;;;;;-1.83;52.34;100302.80;1703196;83;21072;-63
2021/03/12 03:44:40;;;;;;;11.83;4.60;;;;;;;-1.86;52.33;100312.44;1703243;83;21073;-62
2021/03/12 03:47:08;;;;;;;9.78;3.65;;;;;;;-1.88;52.37;100309.02;1703278;83;21068;-62
2021/03/12 03:49:36;;;;;;;13.13;4.10;;;;;;;-1.92;52.42;100292.30;1677013;84;21102;-62
2021/03/12 03:52:04;;;;;;;36.28;6.50;;;;;;;-2.01;52.58;100287.63;1703365;83;21307;-63
2021/03/12 03:54:37;;;;;;;12.37;4.47;;;;;;;-2.04;52.74;100285.66;1678043;84;21187;-63
2021/03/12 03:57:07;;;;;;;11.97;4.50;;;;;;;-2.04;52.74;100285.66;1702638;83;21045;-62
2021/03/12 03:59:38;;;;;;;14.78;5.20;;;;;;;-2.03;52.71;100280.17;1676972;84;21883;-62
2021/03/12 04:02:09;;;;;;;33.40;5.50;;;;;;;-2.01;52.69;100297.50;1703251;84;21335;-62
2021/03/12 04:04:37;;;;;;;13.65;5.22;;;;;;;-2.03;52.62;100279.32;1703420;83;21176;-61
2021/03/12 04:07:08;;;;;;;12.33;4.35;;;;;;;-2.03;52.62;100279.32;1703296;84;21764;-63
2021/03/12 04:09:36;;;;;;;12.33;5.53;;;;;;;-2.03;52.76;100299.45;1703165;84;21343;-65
2021/03/12 04:12:06;;;;;;;10.18;4.40;;;;;;;-2.06;52.89;100303.72;1677110;84;21080;-62
2021/03/12 04:14:36;;;;;;;9.28;3.95;;;;;;;-2.06;52.89;100303.72;1702168;84;21300;-64
2021/03/12 04:17:04;;;;;;;10.05;4.83;;;;;;;-2.05;52.96;100293.34;1677212;84;21121;-63
2021/03/12 04:19:32;;;;;;;10.43;4.45;;;;;;;-2.08;52.92;100294.44;1711060;83;21117;-63
2021/03/12 04:22:00;;;;;;;10.88;5.33;;;;;;;-2.09;52.94;100313.36;1714830;83;21707;-62
2021/03/12 04:24:31;;;;;;;11.20;4.47;;;;;;;-2.09;52.94;100313.36;1715019;83;21809;-61
2021/03/12 04:26:58;;;;;;;18.82;4.95;;;;;;;-2.11;52.98;100305.42;1686475;83;21253;-62
2021/03/12 04:29:27;;;;;;;17.70;4.60;;;;;;;-2.10;53.01;100296.88;1662541;83;21284;-62
2021/03/12 04:31:54;;;;;;;13.93;4.78;;;;;;;-2.10;53.01;100296.88;1714860;83;21078;-61
2021/03/12 04:34:23;;;;;;;13.08;5.08;;;;;;;-2.11;52.94;100297.86;1686870;83;21323;-62
2021/03/12 04:36:54;;;;;;;12.80;4.08;;;;;;;-2.10;52.97;100300.91;1686297;83;21074;-61
2021/03/12 04:39:22;;;;;;;11.25;4.40;;;;;;;-2.07;52.91;100300.67;1714834;83;21830;-61
2021/03/12 04:41:49;;;;;;;14.90;5.62;;;;;;;-2.10;52.86;100307.12;1686381;83;21147;-62
2021/03/12 04:44:18;;;;;;;9.58;3.87;;;;;;;-2.11;52.84;100313.47;1714821;83;21304;-63
2021/03/12 04:46:46;;;;;;;11.63;5.17;;;;;;;-2.07;52.84;100316.77;1714860;82;21291;-63
2021/03/12 04:49:14;;;;;;;17.32;5.10;;;;;;;-2.06;52.81;100331.91;1714962;83;21078;-62
2021/03/12 04:51:44;;;;;;;12.63;4.83;;;;;;;-2.10;52.77;100322.37;1714829;83;21082;-60
2021/03/12 04:54:17;;;;;;;8.70;4.37;;;;;;;-2.14;52.83;100320.91;1714877;82;21583;-62
2021/03/12 04:56:46;;;;;;;13.40;5.47;;;;;;;-2.14;52.90;100326.27;1714928;82;21070;-63
2021/03/12 04:59:13;;;;;;;14.98;5.50;;;;;;;-2.12;52.93;100314.94;1714965;83;21073;-62
2021/03/12 05:01:43;;;;;;;10.38;4.37;;;;;;;-2.08;52.90;100325.80;1688880;83;21089;-62
2021/03/12 05:04:11;;;;;;;14.65;5.78;;;;;;;-2.06;52.86;100308.60;1688854;83;21786;-63
2021/03/12 05:06:44;;;;;;;12.70;4.62;;;;;;;-2.04;52.81;100299.94;1715394;82;21091;-63
2021/03/12 05:09:22;;;;;;;9.10;5.08;;;;;;;-2.05;52.82;100300.92;1712931;83;21883;-62
2021/03/12 05:11:51;;;;;;;12.75;5.67;;;;;;;-2.08;52.90;100312.38;1689179;83;21048;-63
2021/03/12 05:14:21;;;;;;;17.73;4.55;;;;;;;-2.07;52.86;100299.33;1714950;83;21159;-62
2021/03/12 05:16:48;;;;;;;11.55;5.00;;;;;;;-2.07;52.92;100305.55;1715273;82;21413;-63
2021/03/12 05:19:17;;;;;;;20.70;5.93;;;;;;;-2.08;52.92;100321.77;1715594;83;21954;-63
2021/03/12 05:21:46;;;;;;;13.00;5.37;;;;;;;-2.09;52.96;100328.12;1688699;83;21950;-62
2021/03/12 05:24:15;;;;;;;14.23;5.92;;;;;;;-2.09;52.98;100314.20;1715141;82;21029;-63
2021/03/12 05:26:44;;;;;;;10.10;5.15;;;;;;;-2.08;53.02;100316.41;1715436;83;21088;-61
2021/03/12 05:29:12;;;;;;;13.53;4.80;;;;;;;-2.11;53.04;100305.42;1688845;83;21120;-66
2021/03/12 05:31:40;;;;;;;12.53;5.15;;;;;;;-2.11;53.15;100301.39;1715280;82;21056;-65
2021/03/12 05:34:07;;;;;;;15.88;4.47;;;;;;;-2.11;53.13;100286.63;1715289;83;21079;-63
2021/03/12 05:36:40;;;;;;;15.05;5.28;;;;;;;-2.12;53.21;100290.29;1715349;82;21390;-62
2021/03/12 05:39:06;;;;;;;11.20;4.90;;;;;;;-2.12;53.17;100281.38;1688294;83;21044;-62
2021/03/12 05:41:37;;;;;;;14.35;5.45;;;;;;;-2.14;53.21;100279.31;1715759;83;21076;-64
2021/03/12 05:44:06;;;;;;;18.30;6.67;;;;;;;-2.14;53.26;100292.23;1718079;83;21338;-62
2021/03/12 05:46:34;;;;;;;22.10;5.62;;;;;;;-2.14;53.32;100286.02;1718191;83;21290;-62
2021/03/12 05:49:04;;;;;;;16.62;4.90;;;;;;;-2.16;53.30;100273.20;1718171;83;21127;-61
2021/03/12 05:51:35;;;;;;;13.03;4.97;;;;;;;-2.14;53.30;100282.84;1718163;83;21172;-61
2021/03/12 05:54:04;;;;;;;17.27;6.00;;;;;;;-2.10;53.27;100293.70;1718220;83;21434;-64
2021/03/12 05:56:32;;;;;;;19.70;5.92;;;;;;;-2.06;53.21;100299.20;1718183;83;21898;-62
2021/03/12 05:59:03;;;;;;;13.88;5.40;;;;;;;-2.04;53.10;100294.57;1718174;83;21130;-62
2021/03/12 06:01:32;;;;;;;17.02;6.50;;;;;;;-2.03;53.16;100284.69;1717380;83;21818;-62
2021/03/12 06:04:00;;;;;;;14.83;6.10;;;;;;;-1.98;52.92;100279.81;1717816;83;21202;-62
2021/03/12 06:06:30;;;;;;;20.80;6.28;;;;;;;-1.98;52.92;100279.81;1717920;83;21087;-62
2021/03/12 06:08:58;;;;;;;11.40;4.42;;;;;;;-1.94;52.93;100277.28;1717866;83;21103;-62
2021/03/12 06:11:26;;;;;;;18.65;6.67;;;;;;;-1.98;52.94;100273.95;1693369;83;21103;-63
2021/03/12 06:13:55;;;;;;;13.70;5.80;;;;;;;-1.98;52.93;100267.25;1718249;83;21079;-63
2021/03/12 06:16:37;;;;;;;17.82;7.10;;;;;;;-2.01;52.95;100258.58;1716575;83;21783;-63
2021/03/12 06:19:17;;;;;;;18.02;6.65;;;;;;;-1.98;53.06;100265.91;1718192;83;22032;-63
2021/03/12 06:21:47;;;;;;;21.33;7.15;;;;;;;-1.95;52.97;100252.76;1718095;83;21072;-64
2021/03/12 06:24:31;;;;;;;28.00;5.20;;;;;;;-1.96;52.97;100241.62;1717707;83;21159;-63
2021/03/12 06:27:31;;;;;;;19.85;5.95;;;;;;;-1.94;52.94;100217.73;1718089;83;21081;-64
2021/03/12 06:30:00;;;;;;;17.48;6.45;;;;;;;-1.93;52.73;100227.50;1697336;82;21823;-63
2021/03/12 06:32:41;;;;;;;19.65;6.97;;;;;;;-1.93;52.75;100230.67;1701988;83;21119;-63
2021/03/12 06:35:20;;;;;;;36.95;7.03;;;;;;;-1.90;52.68;100231.77;1697489;83;21257;-63
2021/03/12 06:38:09;;;;;;;26.75;7.17;;;;;;;-1.87;52.49;100234.20;1685704;83;21095;-62
2021/03/12 06:40:45;;;;;;;39.88;7.17;;;;;;;-1.85;52.28;100217.48;1717108;83;21745;-62
2021/03/12 06:43:24;;;;;;;20.05;6.87;;;;;;;-1.84;52.20;100218.34;1715280;83;21831;-64
2021/03/12 06:45:59;;;;;;;23.47;6.20;;;;;;;-1.85;52.08;100212.11;1718097;82;21055;-63
2021/03/12 06:48:34;;;;;;;21.23;7.05;;;;;;;-1.79;51.94;100212.96;1717868;83;21103;-63
2021/03/12 06:51:13;;;;;;;21.23;5.60;;;;;;;-1.79;51.94;100212.96;1714690;83;21762;-63
2021/03/12 06:53:41;;;;;;;27.60;6.75;;;;;;;-1.67;51.99;100209.28;1717748;83;21068;-63
2021/03/12 06:56:11;;;;;;;17.65;6.75;;;;;;;-1.58;51.55;100209.02;1693508;83;21100;-63
2021/03/12 06:59:01;;;;;;;15.45;5.65;;;;;;;-1.52;51.25;100217.92;1717304;83;21068;-62
2021/03/12 07:01:48;;;;;;;21.97;6.62;;;;;;;-1.46;51.11;100224.63;1715650;83;21079;-62
2021/03/12 07:04:17;;;;;;;15.80;5.83;;;;;;;-1.43;50.80;100217.66;1716973;83;21093;-63
2021/03/12 07:06:49;;;;;;;18.50;6.42;;;;;;;-1.38;50.75;100213.62;1715917;82;21118;-63
2021/03/12 07:09:19;;;;;;;17.07;5.53;;;;;;;-1.34;50.57;100218.25;1717832;82;21721;-62
2021/03/12 07:11:55;;;;;;;22.73;6.65;;;;;;;-1.29;50.41;100218.75;1692245;83;21287;-63
2021/03/12 07:14:27;;;;;;;16.40;7.05;;;;;;;-1.26;50.39;100229.25;1704436;83;21436;-64
2021/03/12 07:16:59;;;;;;;22.30;6.42;;;;;;;-1.24;50.29;100220.58;1717770;83;21190;-62
2021/03/12 07:19:28;;;;;;;21.73;5.65;;;;;;;-1.23;50.23;100229.00;1693442;83;21135;-61
2021/03/12 07:21:59;;;;;;;16.30;6.25;;;;;;;-1.21;50.04;100201.99;1670523;83;21108;-62
2021/03/12 07:24:30;;;;;;;54.63;8.30;;;;;;;-1.21;50.04;100184.03;1717924;83;21831;-62
2021/03/12 07:26:58;;;;;;;20.00;5.53;;;;;;;-1.20;49.90;100174.98;1693385;83;21465;-61
2021/03/12 07:29:30;;;;;;;18.45;7.40;;;;;;;-1.21;49.98;100159.84;1717124;83;21172;-63
2021/03/12 07:32:04;;;;;;;22.98;8.18;;;;;;;-1.19;49.93;100180.72;1716200;83;21106;-63
2021/03/12 07:34:34;;;;;;;33.00;7.12;;;;;;;-1.19;49.95;100166.44;1718290;83;21194;-62
2021/03/12 07:37:03;;;;;;;16.52;6.53;;;;;;;-1.21;49.89;100177.31;1717497;83;21790;-62
2021/03/12 07:39:46;;;;;;;40.23;7.67;;;;;;;-1.21;49.91;100196.13;1693153;83;21167;-62
2021/03/12 07:42:18;;;;;;;21.62;7.72;;;;;;;-1.21;49.90;100195.27;1717618;83;21213;-62
2021/03/12 07:44:56;;;;;;;14.15;6.50;;;;;;;-1.24;50.06;100200.91;1699927;83;21091;-63
2021/03/12 07:47:31;;;;;;;11.48;5.08;;;;;;;-1.21;50.08;100183.18;1714140;83;21787;-63
2021/03/12 07:50:00;;;;;;;17.80;5.83;;;;;;;-1.22;50.10;100175.61;1693184;83;21963;-62
2021/03/12 07:52:51;;;;;;;13.15;4.95;;;;;;;-1.21;49.99;100146.41;1715121;83;21044;-63
2021/03/12 07:55:45;;;;;;;14.38;4.90;;;;;;;-1.19;50.13;100143.59;1674332;83;21768;-63
2021/03/12 07:58:49;;;;;;;22.03;4.80;;;;;;;-1.20;50.21;100129.30;1715058;83;21100;-63
2021/03/12 08:01:20;;;;;;;15.93;5.67;;;;;;;-1.17;50.23;100134.41;1657825;85;21491;-64
2021/03/12 08:03:51;;;;;;;20.65;5.37;;;;;;;-1.14;50.11;100142.22;1699978;82;21423;-64
2021/03/12 08:06:30;;;;;;;16.20;5.58;;;;;;;-1.16;50.18;100159.45;1712000;83;21444;-63
2021/03/12 08:08:57;;;;;;;11.50;4.53;;;;;;;-1.18;50.25;100150.17;1709470;83;21822;-63
2021/03/12 08:11:34;;;;;;;13.18;6.08;;;;;;;-1.18;50.35;100155.55;1705440;84;21359;-63
2021/03/12 08:14:18;;;;;;;13.40;6.35;;;;;;;-1.15;50.46;100167.39;1696090;83;21105;-62
2021/03/12 08:17:04;;;;;;;15.55;5.10;;;;;;;-1.08;50.44;100171.27;1706346;83;21325;-64
2021/03/12 08:19:37;;;;;;;13.30;5.15;;;;;;;-1.01;50.38;100154.12;1706945;84;21717;-63
2021/03/12 08:22:30;;;;;;;15.53;4.92;;;;;;;-1.00;50.24;100156.69;1707528;83;21076;-64
2021/03/12 08:25:09;;;;;;;12.18;6.05;;;;;;;-1.01;50.36;100152.29;1642345;83;21535;-63
2021/03/12 08:27:54;;;;;;;14.55;4.83;;;;;;;-0.98;50.35;100137.24;1621980;87;21130;-63
2021/03/12 08:30:36;;;;;;;13.15;5.62;;;;;;;-0.94;50.34;100141.87;1639502;87;21078;-61
2021/03/12 08:33:10;;;;;;;11.90;3.70;;;;;;;-0.90;50.43;100148.69;1642789;86;21114;-62
2021/03/12 08:35:42;;;;;;;11.83;5.50;;;;;;;-0.86;50.43;100138.52;1638585;87;21073;-62
2021/03/12 08:38:35;;;;;;;14.68;4.87;;;;;;;-0.80;50.47;100135.30;1687768;84;21118;-62
2021/03/12 08:41:19;;;;;;;23.75;5.03;;;;;;;-0.74;50.46;100136.13;1649960;84;21245;-62
2021/03/12 08:44:11;;;;;;;23.52;5.45;;;;;;;-0.71;50.40;100157.38;1695391;83;21280;-62
2021/03/12 08:46:57;;;;;;;10.65;4.55;;;;;;;-0.73;50.41;100147.24;1692230;84;21850;-62
2021/03/12 08:49:27;;;;;;;16.30;5.28;;;;;;;-0.73;50.56;100116.31;1716133;82;21105;-65
2021/03/12 08:51:56;;;;;;;11.15;5.03;;;;;;;-0.71;50.74;100100.40;1667611;83;21723;-61
2021/03/12 08:54:29;;;;;;;22.00;5.17;;;;;;;-0.66;50.71;100112.10;1700714;83;21069;-62
2021/03/12 08:57:00;;;;;;;30.65;5.78;;;;;;;-0.62;50.72;100115.41;1693858;84;21117;-63
2021/03/12 08:59:28;;;;;;;17.42;4.53;;;;;;;-0.60;50.73;100102.19;1646917;86;21174;-62
2021/03/12 09:01:58;;;;;;;18.05;6.40;;;;;;;-0.59;50.85;100090.93;1632083;86;21111;-64
2021/03/12 09:04:34;;;;;;;19.45;4.85;;;;;;;-0.55;50.80;100085.14;1655983;86;21857;-64
2021/03/12 09:07:14;;;;;;;9.98;3.90;;;;;;;-0.53;50.78;100105.19;1643006;86;21089;-62
2021/03/12 09:09:49;;;;;;;11.80;4.60;;;;;;;-0.53;50.84;100095.28;1640699;86;21294;-64
2021/03/12 09:12:34;;;;;;;14.78;4.62;;;;;;;-0.52;50.87;100095.64;1630139;87;21086;-63
2021/03/12 09:15:09;;;;;;;12.50;4.50;;;;;;;-0.52;51.04;100094.78;1641745;86;21752;-61
2021/03/12 09:17:38;;;;;;;22.30;7.28;;;;;;;-0.53;51.07;100092.59;1606854;88;21110;-63
2021/03/12 09:20:12;;;;;;;24.98;10.20;;;;;;;-0.55;51.09;100121.47;1637201;86;21429;-63
2021/03/12 09:22:53;;;;;;;26.17;10.13;;;;;;;-0.59;51.19;100074.78;1630927;86;21058;-65
2021/03/12 09:25:29;;;;;;;23.67;8.08;;;;;;;-0.59;51.31;100070.26;1642383;87;21105;-64
2021/03/12 09:28:06;;;;;;;39.10;11.00;;;;;;;-0.56;51.41;100059.72;1641574;86;21328;-63
2021/03/12 09:30:41;;;;;;;53.58;17.62;;;;;;;-0.55;51.44;100073.03;1617213;86;21148;-61
2021/03/12 09:33:42;;;;;;;30.62;10.53;;;;;;;-0.54;51.53;100081.47;1651814;86;21884;-62
2021/03/12 09:36:46;;;;;;;23.45;8.93;;;;;;;-0.52;51.71;100067.38;1659277;85;21348;-66
2021/03/12 09:39:32;;;;;;;24.47;7.78;;;;;;;-0.51;51.93;100065.55;1638457;86;21108;-61
2021/03/12 09:42:03;;;;;;;19.73;7.15;;;;;;;-0.50;52.10;100066.75;1601102;86;21066;-63
2021/03/12 09:44:33;;;;;;;26.45;7.42;;;;;;;-0.50;52.18;100066.75;1683104;85;21071;-61
2021/03/12 09:47:08;;;;;;;17.35;7.22;;;;;;;-0.53;52.21;100067.03;1684321;83;21422;-61
2021/03/12 09:49:44;;;;;;;11.90;5.17;;;;;;;-0.54;52.35;100052.36;1677279;83;21888;-60
2021/03/12 09:52:16;;;;;;;15.65;5.80;;;;;;;-0.53;52.46;100048.19;1684000;83;21841;-60
2021/03/12 09:54:50;;;;;;;10.05;4.53;;;;;;;-0.49;52.47;100055.01;1676591;83;21086;-61
2021/03/12 09:57:21;;;;;;;17.25;4.85;;;;;;;-0.43;52.55;100055.80;1687211;83;21148;-60
2021/03/12 09:59:50;;;;;;;10.00;3.83;;;;;;;-0.42;52.67;100046.75;1685232;83;21133;-59
2021/03/12 10:02:22;;;;;;;11.08;4.47;;;;;;;-0.43;53.06;100061.19;1683873;83;21098;-61
2021/03/12 10:05:05;;;;;;;11.53;4.42;;;;;;;-0.46;53.28;100052.05;1681147;85;21897;-60
2021/03/12 10:07:53;;;;;;;12.55;4.60;;;;;;;-0.50;53.75;100051.95;1681921;83;21106;-61
2021/03/12 10:10:27;;;;;;;7.17;4.00;;;;;;;-0.51;54.12;100034.60;1688913;83;21078;-61
2021/03/12 10:13:00;;;;;;;11.48;3.77;;;;;;;-0.49;54.30;100039.35;1658558;85;21861;-61
2021/03/12 10:15:35;;;;;;;17.45;4.75;;;;;;;-0.50;54.55;100033.13;1657784;85;22041;-62
2021/03/12 10:18:22;;;;;;;11.90;5.00;;;;;;;-0.48;55.32;100036.53;1672829;83;21454;-62
2021/03/12 10:20:53;;;;;;;12.58;4.55;;;;;;;-0.48;56.27;100043.75;1694295;83;21861;-62
2021/03/12 10:23:20;;;;;;;14.75;5.03;;;;;;;-0.50;56.77;100038.50;1690416;83;21057;-63
2021/03/12 10:25:48;;;;;;;17.85;5.65;;;;;;;-0.48;57.41;100031.14;1693751;83;21506;-62
2021/03/12 10:28:19;;;;;;;14.13;6.28;;;;;;;-0.44;58.30;100024.50;1680896;83;21268;-63
2021/03/12 10:30:56;;;;;;;14.70;5.67;;;;;;;-0.43;59.13;100035.62;1695671;83;21419;-61
2021/03/12 10:33:26;;;;;;;10.75;5.00;;;;;;;-0.46;59.62;100026.48;1693723;83;21308;-63
2021/03/12 10:35:58;;;;;;;13.10;5.87;;;;;;;-0.51;60.18;100034.60;1681620;83;21050;-62
2021/03/12 10:38:30;;;;;;;13.03;4.70;;;;;;;-0.55;60.80;100027.30;1682165;84;21042;-62
2021/03/12 10:41:15;;;;;;;13.83;5.55;;;;;;;-0.56;61.58;100019.36;1683394;84;21031;-63
2021/03/12 10:43:43;;;;;;;13.53;6.30;;;;;;;-0.56;62.29;100030.13;1683365;85;21835;-63
2021/03/12 10:46:10;;;;;;;16.20;6.15;;;;;;;-0.58;62.83;100021.34;1675526;84;21078;-61
2021/03/12 10:48:47;;;;;;;17.90;7.35;;;;;;;-0.58;63.37;100019.98;1689625;83;21094;-62
2021/03/12 10:51:18;;;;;;;14.38;5.30;;;;;;;-0.53;63.91;100014.56;1685756;83;21117;-62
2021/03/12 10:53:54;;;;;;;14.93;5.25;;;;;;;-0.54;64.43;100022.77;1686674;83;21229;-61
2021/03/12 10:56:23;;;;;;;11.93;5.45;;;;;;;-0.66;64.80;100015.26;1685560;84;21188;-62
2021/03/12 10:58:53;;;;;;;13.53;6.17;;;;;;;-0.72;65.27;100015.80;1690132;83;21052;-62
2021/03/12 11:01:26;;;;;;;18.77;7.78;;;;;;;-0.75;65.89;100019.61;1698361;84;22009;-62
2021/03/12 11:03:55;;;;;;;13.72;5.62;;;;;;;-0.76;66.32;100014.37;1686361;84;21158;-61
2021/03/12 11:06:37;;;;;;;13.43;5.70;;;;;;;-0.76;66.66;100014.37;1685891;84;21237;-62
2021/03/12 11:09:06;;;;;;;14.85;5.95;;;;;;;-0.79;66.98;100020.86;1686704;84;21289;-61
2021/03/12 11:11:34;;;;;;;17.40;6.20;;;;;;;-0.80;67.31;100010.24;1685267;83;21755;-61
2021/03/12 11:14:01;;;;;;;15.72;6.12;;;;;;;-0.78;67.71;100019.03;1693452;83;21228;-60
2021/03/12 11:16:29;;;;;;;12.53;5.35;;;;;;;-0.78;67.94;100005.58;1686299;83;21204;-62
2021/03/12 11:18:57;;;;;;;13.32;6.00;;;;;;;-0.83;68.13;100003.30;1689650;83;21253;-63
2021/03/12 11:21:26;;;;;;;13.70;5.60;;;;;;;-0.87;68.54;99999.67;1693354;83;21421;-62
2021/03/12 11:23:54;;;;;;;12.95;5.90;;;;;;;-0.86;68.90;100009.44;1688501;84;21035;-62
2021/03/12 11:26:23;;;;;;;14.98;6.55;;;;;;;-0.86;69.13;100002.72;1649731;85;21054;-62
2021/03/12 11:28:51;;;;;;;20.27;7.12;;;;;;;-0.84;69.44;100003.43;1631222;87;21041;-62
2021/03/12 11:31:19;;;;;;;13.05;6.12;;;;;;;-0.78;69.61;99996.16;1612613;87;21355;-59
2021/03/12 11:33:47;;;;;;;17.73;7.28;;;;;;;-0.72;69.69;99998.31;1632963;87;21239;-63
2021/03/12 11:36:16;;;;;;;14.65;6.25;;;;;;;-0.66;69.74;99991.05;1649606;87;21235;-62
2021/03/12 11:38:43;;;;;;;15.58;7.22;;;;;;;-0.64;69.66;99993.14;1650307;86;21366;-62
2021/03/12 11:41:11;;;;;;;17.12;7.45;;;;;;;-0.59;69.73;99984.66;1655117;86;21315;-62